sensor_id;sensor_type;location;lat;lon;timestamp;P1;P2;P0
47705;PMS5003;33471;52.104;1.318;2023-04-16T00:01:31;34;34;
47705;PMS5003;33471;52.104;1.318;2023-04-16T00:03:58;38;34;
47705;PMS5003;33471;52.104;1.318;2023-04-16T00:06:25;47;40;
47705;PMS5003;33471;52.104;1.318;2023-04-16T00:08:52;35;31;
47705;PMS5003;33471;52.104;1.318;2023-04-16T00:11:19;33;30;
47705;PMS5003;33471;52.104;1.318;2023-04-16T00:13:47;31;30;
47705;PMS5003;33471;52.104;1.318;2023-04-16T00:16:14;31;26;
47705;PMS5003;33471;52.104;1.318;2023-04-16T00:18:42;26;26;
47705;PMS5003;33471;52.104;1.318;2023-04-16T00:21:08;32;30;
47705;PMS5003;33471;52.104;1.318;2023-04-16T00:23:36;26;25;
47705;PMS5003;33471;52.104;1.318;2023-04-16T00:26:04;33;28;
47705;PMS5003;33471;52.104;1.318;2023-04-16T00:28:31;35;29;
47705;PMS5003;33471;52.104;1.318;2023-04-16T00:30:59;30;27;
47705;PMS5003;33471;52.104;1.318;2023-04-16T00:33:27;33;31;
47705;PMS5003;33471;52.104;1.318;2023-04-16T00:35:54;40;33;
47705;PMS5003;33471;52.104;1.318;2023-04-16T00:38:21;32;31;
47705;PMS5003;33471;52.104;1.318;2023-04-16T00:40:48;37;31;
47705;PMS5003;33471;52.104;1.318;2023-04-16T00:43:19;34;27;
47705;PMS5003;33471;52.104;1.318;2023-04-16T00:45:48;34;31;
47705;PMS5003;33471;52.104;1.318;2023-04-16T00:48:15;29;28;
47705;PMS5003;33471;52.104;1.318;2023-04-16T00:50:43;35;32;
47705;PMS5003;33471;52.104;1.318;2023-04-16T00:53:11;32;29;
47705;PMS5003;33471;52.104;1.318;2023-04-16T00:55:39;31;27;
47705;PMS5003;33471;52.104;1.318;2023-04-16T00:58:06;27;27;
47705;PMS5003;33471;52.104;1.318;2023-04-16T01:00:34;46;39;
47705;PMS5003;33471;52.104;1.318;2023-04-16T01:03:01;36;31;
47705;PMS5003;33471;52.104;1.318;2023-04-16T01:05:29;35;35;
47705;PMS5003;33471;52.104;1.318;2023-04-16T01:07:57;33;30;
47705;PMS5003;33471;52.104;1.318;2023-04-16T01:10:25;33;31;
47705;PMS5003;33471;52.104;1.318;2023-04-16T01:12:53;38;34;
47705;PMS5003;33471;52.104;1.318;2023-04-16T01:15:20;36;34;
47705;PMS5003;33471;52.104;1.318;2023-04-16T01:17:48;33;32;
47705;PMS5003;33471;52.104;1.318;2023-04-16T01:20:17;39;35;
47705;PMS5003;33471;52.104;1.318;2023-04-16T01:22:44;45;39;
47705;PMS5003;33471;52.104;1.318;2023-04-16T01:25:13;42;39;
47705;PMS5003;33471;52.104;1.318;2023-04-16T01:27:40;41;34;
47705;PMS5003;33471;52.104;1.318;2023-04-16T01:30:08;30;30;
47705;PMS5003;33471;52.104;1.318;2023-04-16T01:32:35;30;26;
47705;PMS5003;33471;52.104;1.318;2023-04-16T01:35:03;29;29;
47705;PMS5003;33471;52.104;1.318;2023-04-16T01:37:31;30;27;
47705;PMS5003;33471;52.104;1.318;2023-04-16T01:39:58;36;31;
47705;PMS5003;33471;52.104;1.318;2023-04-16T01:42:25;30;27;
47705;PMS5003;33471;52.104;1.318;2023-04-16T01:44:53;34;30;
47705;PMS5003;33471;52.104;1.318;2023-04-16T01:47:20;33;29;
47705;PMS5003;33471;52.104;1.318;2023-04-16T01:49:47;31;27;
47705;PMS5003;33471;52.104;1.318;2023-04-16T01:52:14;28;25;
47705;PMS5003;33471;52.104;1.318;2023-04-16T01:54:41;36;30;
47705;PMS5003;33471;52.104;1.318;2023-04-16T01:57:08;35;31;
47705;PMS5003;33471;52.104;1.318;2023-04-16T01:59:36;29;25;
47705;PMS5003;33471;52.104;1.318;2023-04-16T02:02:06;30;26;
47705;PMS5003;33471;52.104;1.318;2023-04-16T02:04:35;36;28;
47705;PMS5003;33471;52.104;1.318;2023-04-16T02:07:03;29;26;
47705;PMS5003;33471;52.104;1.318;2023-04-16T02:09:33;32;30;
47705;PMS5003;33471;52.104;1.318;2023-04-16T02:12:00;24;24;
47705;PMS5003;33471;52.104;1.318;2023-04-16T02:14:27;34;29;
47705;PMS5003;33471;52.104;1.318;2023-04-16T02:16:54;35;34;
47705;PMS5003;33471;52.104;1.318;2023-04-16T02:19:21;39;32;
47705;PMS5003;33471;52.104;1.318;2023-04-16T02:21:50;30;28;
47705;PMS5003;33471;52.104;1.318;2023-04-16T02:24:17;33;28;
47705;PMS5003;33471;52.104;1.318;2023-04-16T02:26:46;30;30;
47705;PMS5003;33471;52.104;1.318;2023-04-16T02:29:14;31;31;
47705;PMS5003;33471;52.104;1.318;2023-04-16T02:31:41;24;24;
47705;PMS5003;33471;52.104;1.318;2023-04-16T02:34:08;28;25;
47705;PMS5003;33471;52.104;1.318;2023-04-16T02:36:36;22;20;
47705;PMS5003;33471;52.104;1.318;2023-04-16T02:39:03;30;25;
47705;PMS5003;33471;52.104;1.318;2023-04-16T02:41:32;24;22;
47705;PMS5003;33471;52.104;1.318;2023-04-16T02:44:00;28;25;
47705;PMS5003;33471;52.104;1.318;2023-04-16T02:46:27;32;32;
47705;PMS5003;33471;52.104;1.318;2023-04-16T02:48:55;27;26;
47705;PMS5003;33471;52.104;1.318;2023-04-16T02:51:21;28;23;
47705;PMS5003;33471;52.104;1.318;2023-04-16T02:53:49;29;27;
47705;PMS5003;33471;52.104;1.318;2023-04-16T02:56:17;29;29;
47705;PMS5003;33471;52.104;1.318;2023-04-16T02:58:44;28;28;
47705;PMS5003;33471;52.104;1.318;2023-04-16T03:01:11;25;23;
47705;PMS5003;33471;52.104;1.318;2023-04-16T03:03:40;33;31;
47705;PMS5003;33471;52.104;1.318;2023-04-16T03:06:06;24;22;
47705;PMS5003;33471;52.104;1.318;2023-04-16T03:08:33;29;27;
47705;PMS5003;33471;52.104;1.318;2023-04-16T03:11:01;24;22;
47705;PMS5003;33471;52.104;1.318;2023-04-16T03:13:28;20;20;
47705;PMS5003;33471;52.104;1.318;2023-04-16T03:15:56;29;28;
47705;PMS5003;33471;52.104;1.318;2023-04-16T03:18:23;26;25;
47705;PMS5003;33471;52.104;1.318;2023-04-16T03:20:51;29;28;
47705;PMS5003;33471;52.104;1.318;2023-04-16T03:23:18;19;19;
47705;PMS5003;33471;52.104;1.318;2023-04-16T03:25:45;23;22;
47705;PMS5003;33471;52.104;1.318;2023-04-16T03:28:12;31;28;
47705;PMS5003;33471;52.104;1.318;2023-04-16T03:30:40;21;18;
47705;PMS5003;33471;52.104;1.318;2023-04-16T03:33:07;19;18;
47705;PMS5003;33471;52.104;1.318;2023-04-16T03:35:34;21;18;
47705;PMS5003;33471;52.104;1.318;2023-04-16T03:38:01;23;21;
47705;PMS5003;33471;52.104;1.318;2023-04-16T03:40:28;29;28;
47705;PMS5003;33471;52.104;1.318;2023-04-16T03:42:55;27;25;
47705;PMS5003;33471;52.104;1.318;2023-04-16T03:45:22;35;28;
47705;PMS5003;33471;52.104;1.318;2023-04-16T03:47:49;23;21;
47705;PMS5003;33471;52.104;1.318;2023-04-16T03:50:16;25;23;
47705;PMS5003;33471;52.104;1.318;2023-04-16T03:52:44;28;25;
47705;PMS5003;33471;52.104;1.318;2023-04-16T03:55:11;21;21;
47705;PMS5003;33471;52.104;1.318;2023-04-16T03:57:38;24;22;
47705;PMS5003;33471;52.104;1.318;2023-04-16T04:00:06;23;23;
47705;PMS5003;33471;52.104;1.318;2023-04-16T04:02:34;21;19;
47705;PMS5003;33471;52.104;1.318;2023-04-16T04:05:01;22;22;
47705;PMS5003;33471;52.104;1.318;2023-04-16T04:07:28;26;23;
47705;PMS5003;33471;52.104;1.318;2023-04-16T04:09:55;22;22;
47705;PMS5003;33471;52.104;1.318;2023-04-16T04:12:22;28;23;
47705;PMS5003;33471;52.104;1.318;2023-04-16T04:14:49;22;20;
47705;PMS5003;33471;52.104;1.318;2023-04-16T04:17:16;21;19;
47705;PMS5003;33471;52.104;1.318;2023-04-16T04:19:44;29;26;
47705;PMS5003;33471;52.104;1.318;2023-04-16T04:22:11;26;26;
47705;PMS5003;33471;52.104;1.318;2023-04-16T04:24:38;18;17;
47705;PMS5003;33471;52.104;1.318;2023-04-16T04:27:05;22;21;
47705;PMS5003;33471;52.104;1.318;2023-04-16T04:29:32;28;25;
47705;PMS5003;33471;52.104;1.318;2023-04-16T04:31:59;16;16;
47705;PMS5003;33471;52.104;1.318;2023-04-16T04:34:26;20;17;
47705;PMS5003;33471;52.104;1.318;2023-04-16T04:36:53;24;23;
47705;PMS5003;33471;52.104;1.318;2023-04-16T04:39:20;25;24;
47705;PMS5003;33471;52.104;1.318;2023-04-16T04:41:48;21;20;
47705;PMS5003;33471;52.104;1.318;2023-04-16T04:44:15;19;19;
47705;PMS5003;33471;52.104;1.318;2023-04-16T04:46:43;20;20;
47705;PMS5003;33471;52.104;1.318;2023-04-16T04:49:10;20;19;
47705;PMS5003;33471;52.104;1.318;2023-04-16T04:51:37;31;29;
47705;PMS5003;33471;52.104;1.318;2023-04-16T04:54:04;19;19;
47705;PMS5003;33471;52.104;1.318;2023-04-16T04:56:31;16;16;
47705;PMS5003;33471;52.104;1.318;2023-04-16T04:58:58;21;19;
47705;PMS5003;33471;52.104;1.318;2023-04-16T05:01:25;23;23;
47705;PMS5003;33471;52.104;1.318;2023-04-16T05:03:53;19;19;
47705;PMS5003;33471;52.104;1.318;2023-04-16T05:06:20;22;20;
47705;PMS5003;33471;52.104;1.318;2023-04-16T05:08:47;25;25;
47705;PMS5003;33471;52.104;1.318;2023-04-16T05:11:14;23;20;
47705;PMS5003;33471;52.104;1.318;2023-04-16T05:13:41;24;23;
47705;PMS5003;33471;52.104;1.318;2023-04-16T05:16:09;21;21;
47705;PMS5003;33471;52.104;1.318;2023-04-16T05:18:36;22;20;
47705;PMS5003;33471;52.104;1.318;2023-04-16T05:21:04;23;20;
47705;PMS5003;33471;52.104;1.318;2023-04-16T05:23:31;19;16;
47705;PMS5003;33471;52.104;1.318;2023-04-16T05:25:59;19;19;
47705;PMS5003;33471;52.104;1.318;2023-04-16T05:28:26;26;25;
47705;PMS5003;33471;52.104;1.318;2023-04-16T05:30:53;21;21;
47705;PMS5003;33471;52.104;1.318;2023-04-16T05:33:20;22;20;
47705;PMS5003;33471;52.104;1.318;2023-04-16T05:35:47;21;18;
47705;PMS5003;33471;52.104;1.318;2023-04-16T05:38:15;18;18;
47705;PMS5003;33471;52.104;1.318;2023-04-16T05:40:42;23;20;
47705;PMS5003;33471;52.104;1.318;2023-04-16T05:43:09;23;23;
47705;PMS5003;33471;52.104;1.318;2023-04-16T05:45:38;26;26;
47705;PMS5003;33471;52.104;1.318;2023-04-16T05:48:05;20;19;
47705;PMS5003;33471;52.104;1.318;2023-04-16T05:50:33;16;16;
47705;PMS5003;33471;52.104;1.318;2023-04-16T05:53:00;17;17;
47705;PMS5003;33471;52.104;1.318;2023-04-16T05:55:28;20;18;
47705;PMS5003;33471;52.104;1.318;2023-04-16T05:57:56;19;19;
47705;PMS5003;33471;52.104;1.318;2023-04-16T06:00:23;21;17;
47705;PMS5003;33471;52.104;1.318;2023-04-16T06:02:51;22;20;
47705;PMS5003;33471;52.104;1.318;2023-04-16T06:05:18;19;19;
47705;PMS5003;33471;52.104;1.318;2023-04-16T06:07:45;26;26;
47705;PMS5003;33471;52.104;1.318;2023-04-16T06:10:12;18;16;
47705;PMS5003;33471;52.104;1.318;2023-04-16T06:12:40;13;12;
47705;PMS5003;33471;52.104;1.318;2023-04-16T06:15:07;15;15;
47705;PMS5003;33471;52.104;1.318;2023-04-16T06:17:35;20;15;
47705;PMS5003;33471;52.104;1.318;2023-04-16T06:20:03;17;16;
47705;PMS5003;33471;52.104;1.318;2023-04-16T06:22:30;21;21;
47705;PMS5003;33471;52.104;1.318;2023-04-16T06:24:57;17;16;
47705;PMS5003;33471;52.104;1.318;2023-04-16T06:27:24;15;15;
47705;PMS5003;33471;52.104;1.318;2023-04-16T06:29:52;17;17;
47705;PMS5003;33471;52.104;1.318;2023-04-16T06:32:19;26;23;
47705;PMS5003;33471;52.104;1.318;2023-04-16T06:34:46;18;14;
47705;PMS5003;33471;52.104;1.318;2023-04-16T06:37:14;18;17;
47705;PMS5003;33471;52.104;1.318;2023-04-16T06:39:42;19;19;
47705;PMS5003;33471;52.104;1.318;2023-04-16T06:42:09;17;17;
47705;PMS5003;33471;52.104;1.318;2023-04-16T06:44:36;25;24;
47705;PMS5003;33471;52.104;1.318;2023-04-16T06:47:04;26;24;
47705;PMS5003;33471;52.104;1.318;2023-04-16T06:49:31;18;18;
47705;PMS5003;33471;52.104;1.318;2023-04-16T06:51:58;23;19;
47705;PMS5003;33471;52.104;1.318;2023-04-16T06:54:26;14;13;
47705;PMS5003;33471;52.104;1.318;2023-04-16T06:56:54;22;21;
47705;PMS5003;33471;52.104;1.318;2023-04-16T06:59:26;16;15;
47705;PMS5003;33471;52.104;1.318;2023-04-16T07:01:54;17;17;
47705;PMS5003;33471;52.104;1.318;2023-04-16T07:04:21;19;19;
47705;PMS5003;33471;52.104;1.318;2023-04-16T07:06:48;20;18;
47705;PMS5003;33471;52.104;1.318;2023-04-16T07:09:15;17;15;
47705;PMS5003;33471;52.104;1.318;2023-04-16T07:11:43;16;16;
47705;PMS5003;33471;52.104;1.318;2023-04-16T07:14:10;17;16;
47705;PMS5003;33471;52.104;1.318;2023-04-16T07:16:37;16;15;
47705;PMS5003;33471;52.104;1.318;2023-04-16T07:19:04;14;14;
47705;PMS5003;33471;52.104;1.318;2023-04-16T07:21:31;17;17;
47705;PMS5003;33471;52.104;1.318;2023-04-16T07:23:58;11;11;
47705;PMS5003;33471;52.104;1.318;2023-04-16T07:26:26;15;13;
47705;PMS5003;33471;52.104;1.318;2023-04-16T07:28:52;14;12;
47705;PMS5003;33471;52.104;1.318;2023-04-16T07:31:20;18;17;
47705;PMS5003;33471;52.104;1.318;2023-04-16T07:33:46;17;16;
47705;PMS5003;33471;52.104;1.318;2023-04-16T07:36:14;20;18;
47705;PMS5003;33471;52.104;1.318;2023-04-16T07:38:42;19;19;
47705;PMS5003;33471;52.104;1.318;2023-04-16T07:41:09;13;12;
47705;PMS5003;33471;52.104;1.318;2023-04-16T07:43:36;17;13;
47705;PMS5003;33471;52.104;1.318;2023-04-16T07:46:03;20;20;
47705;PMS5003;33471;52.104;1.318;2023-04-16T07:48:30;14;14;
47705;PMS5003;33471;52.104;1.318;2023-04-16T07:50:58;16;16;
47705;PMS5003;33471;52.104;1.318;2023-04-16T07:53:25;11;11;
47705;PMS5003;33471;52.104;1.318;2023-04-16T07:55:52;12;9;
47705;PMS5003;33471;52.104;1.318;2023-04-16T07:58:19;20;17;
47705;PMS5003;33471;52.104;1.318;2023-04-16T08:00:46;23;19;
47705;PMS5003;33471;52.104;1.318;2023-04-16T08:03:14;9;8;
47705;PMS5003;33471;52.104;1.318;2023-04-16T08:05:42;11;11;
47705;PMS5003;33471;52.104;1.318;2023-04-16T08:08:09;16;16;
47705;PMS5003;33471;52.104;1.318;2023-04-16T08:10:36;10;10;
47705;PMS5003;33471;52.104;1.318;2023-04-16T08:13:03;17;16;
47705;PMS5003;33471;52.104;1.318;2023-04-16T08:15:31;13;13;
47705;PMS5003;33471;52.104;1.318;2023-04-16T08:17:58;12;11;
47705;PMS5003;33471;52.104;1.318;2023-04-16T08:20:26;7;7;
47705;PMS5003;33471;52.104;1.318;2023-04-16T08:22:54;10;10;
47705;PMS5003;33471;52.104;1.318;2023-04-16T08:25:21;12;11;
47705;PMS5003;33471;52.104;1.318;2023-04-16T08:27:48;10;10;
47705;PMS5003;33471;52.104;1.318;2023-04-16T08:30:15;10;9;
47705;PMS5003;33471;52.104;1.318;2023-04-16T08:32:43;9;9;
47705;PMS5003;33471;52.104;1.318;2023-04-16T08:35:11;13;11;
47705;PMS5003;33471;52.104;1.318;2023-04-16T08:37:39;8;8;
47705;PMS5003;33471;52.104;1.318;2023-04-16T08:40:07;12;12;
47705;PMS5003;33471;52.104;1.318;2023-04-16T08:42:38;9;9;
47705;PMS5003;33471;52.104;1.318;2023-04-16T08:45:12;9;9;
47705;PMS5003;33471;52.104;1.318;2023-04-16T08:47:41;8;8;
47705;PMS5003;33471;52.104;1.318;2023-04-16T08:50:12;9;9;
47705;PMS5003;33471;52.104;1.318;2023-04-16T08:52:42;11;10;
47705;PMS5003;33471;52.104;1.318;2023-04-16T08:55:15;10;8;
47705;PMS5003;33471;52.104;1.318;2023-04-16T08:57:46;12;12;
47705;PMS5003;33471;52.104;1.318;2023-04-16T09:00:16;10;10;
47705;PMS5003;33471;52.104;1.318;2023-04-16T09:02:44;7;6;
47705;PMS5003;33471;52.104;1.318;2023-04-16T09:05:13;9;9;
47705;PMS5003;33471;52.104;1.318;2023-04-16T09:07:41;8;7;
47705;PMS5003;33471;52.104;1.318;2023-04-16T09:10:09;5;5;
47705;PMS5003;33471;52.104;1.318;2023-04-16T09:12:38;10;8;
47705;PMS5003;33471;52.104;1.318;2023-04-16T09:15:07;8;8;
47705;PMS5003;33471;52.104;1.318;2023-04-16T09:17:36;7;7;
47705;PMS5003;33471;52.104;1.318;2023-04-16T09:20:04;6;6;
47705;PMS5003;33471;52.104;1.318;2023-04-16T09:22:33;12;12;
47705;PMS5003;33471;52.104;1.318;2023-04-16T09:25:00;8;7;
47705;PMS5003;33471;52.104;1.318;2023-04-16T09:27:28;12;12;
47705;PMS5003;33471;52.104;1.318;2023-04-16T09:29:56;10;10;
47705;PMS5003;33471;52.104;1.318;2023-04-16T09:32:23;11;11;
47705;PMS5003;33471;52.104;1.318;2023-04-16T09:34:53;11;11;
47705;PMS5003;33471;52.104;1.318;2023-04-16T09:37:21;10;9;
47705;PMS5003;33471;52.104;1.318;2023-04-16T09:39:54;7;7;
47705;PMS5003;33471;52.104;1.318;2023-04-16T09:42:23;10;9;
47705;PMS5003;33471;52.104;1.318;2023-04-16T09:44:51;11;10;
47705;PMS5003;33471;52.104;1.318;2023-04-16T09:47:19;9;9;
47705;PMS5003;33471;52.104;1.318;2023-04-16T09:49:46;12;10;
47705;PMS5003;33471;52.104;1.318;2023-04-16T09:52:14;8;8;
47705;PMS5003;33471;52.104;1.318;2023-04-16T09:54:46;11;11;
47705;PMS5003;33471;52.104;1.318;2023-04-16T09:57:17;9;9;
47705;PMS5003;33471;52.104;1.318;2023-04-16T09:59:45;10;10;
47705;PMS5003;33471;52.104;1.318;2023-04-16T10:02:12;11;10;
47705;PMS5003;33471;52.104;1.318;2023-04-16T10:04:47;10;10;
47705;PMS5003;33471;52.104;1.318;2023-04-16T10:07:16;11;10;
47705;PMS5003;33471;52.104;1.318;2023-04-16T10:09:44;11;11;
47705;PMS5003;33471;52.104;1.318;2023-04-16T10:12:13;10;10;
47705;PMS5003;33471;52.104;1.318;2023-04-16T10:14:42;11;11;
47705;PMS5003;33471;52.104;1.318;2023-04-16T10:17:09;9;8;
47705;PMS5003;33471;52.104;1.318;2023-04-16T10:19:36;10;10;
47705;PMS5003;33471;52.104;1.318;2023-04-16T10:22:04;14;13;
47705;PMS5003;33471;52.104;1.318;2023-04-16T10:24:31;10;10;
47705;PMS5003;33471;52.104;1.318;2023-04-16T10:27:00;14;14;
47705;PMS5003;33471;52.104;1.318;2023-04-16T10:29:28;9;9;
47705;PMS5003;33471;52.104;1.318;2023-04-16T10:31:57;14;10;
47705;PMS5003;33471;52.104;1.318;2023-04-16T10:34:25;11;11;
47705;PMS5003;33471;52.104;1.318;2023-04-16T10:36:54;16;16;
47705;PMS5003;33471;52.104;1.318;2023-04-16T10:39:22;10;10;
47705;PMS5003;33471;52.104;1.318;2023-04-16T10:41:50;11;10;
47705;PMS5003;33471;52.104;1.318;2023-04-16T10:44:33;6;6;
47705;PMS5003;33471;52.104;1.318;2023-04-16T10:47:00;10;10;
47705;PMS5003;33471;52.104;1.318;2023-04-16T10:49:27;12;10;
47705;PMS5003;33471;52.104;1.318;2023-04-16T10:51:55;10;9;
47705;PMS5003;33471;52.104;1.318;2023-04-16T10:54:24;12;12;
47705;PMS5003;33471;52.104;1.318;2023-04-16T10:56:53;10;10;
47705;PMS5003;33471;52.104;1.318;2023-04-16T10:59:22;10;10;
47705;PMS5003;33471;52.104;1.318;2023-04-16T11:01:51;9;9;
47705;PMS5003;33471;52.104;1.318;2023-04-16T11:04:28;9;9;
47705;PMS5003;33471;52.104;1.318;2023-04-16T11:07:01;8;8;
47705;PMS5003;33471;52.104;1.318;2023-04-16T11:09:46;9;9;
47705;PMS5003;33471;52.104;1.318;2023-04-16T11:12:18;12;8;
47705;PMS5003;33471;52.104;1.318;2023-04-16T11:14:48;11;11;
47705;PMS5003;33471;52.104;1.318;2023-04-16T11:17:16;12;12;
47705;PMS5003;33471;52.104;1.318;2023-04-16T11:19:44;17;15;
47705;PMS5003;33471;52.104;1.318;2023-04-16T11:22:13;15;15;
47705;PMS5003;33471;52.104;1.318;2023-04-16T11:24:42;15;15;
47705;PMS5003;33471;52.104;1.318;2023-04-16T11:27:11;15;14;
47705;PMS5003;33471;52.104;1.318;2023-04-16T11:29:39;9;9;
47705;PMS5003;33471;52.104;1.318;2023-04-16T11:32:06;13;11;
47705;PMS5003;33471;52.104;1.318;2023-04-16T11:34:33;8;8;
47705;PMS5003;33471;52.104;1.318;2023-04-16T11:37:09;9;9;
47705;PMS5003;33471;52.104;1.318;2023-04-16T11:39:46;9;8;
47705;PMS5003;33471;52.104;1.318;2023-04-16T11:42:18;7;6;
47705;PMS5003;33471;52.104;1.318;2023-04-16T11:44:46;10;10;
47705;PMS5003;33471;52.104;1.318;2023-04-16T11:47:18;9;8;
47705;PMS5003;33471;52.104;1.318;2023-04-16T11:49:45;10;10;
47705;PMS5003;33471;52.104;1.318;2023-04-16T11:52:14;7;5;
47705;PMS5003;33471;52.104;1.318;2023-04-16T11:54:51;9;8;
47705;PMS5003;33471;52.104;1.318;2023-04-16T11:57:22;7;7;
47705;PMS5003;33471;52.104;1.318;2023-04-16T11:59:51;8;8;
47705;PMS5003;33471;52.104;1.318;2023-04-16T12:02:33;9;9;
47705;PMS5003;33471;52.104;1.318;2023-04-16T12:05:01;15;15;
47705;PMS5003;33471;52.104;1.318;2023-04-16T12:07:29;9;9;
47705;PMS5003;33471;52.104;1.318;2023-04-16T12:10:05;9;9;
47705;PMS5003;33471;52.104;1.318;2023-04-16T12:12:33;11;11;
47705;PMS5003;33471;52.104;1.318;2023-04-16T12:15:00;8;7;
47705;PMS5003;33471;52.104;1.318;2023-04-16T12:17:29;10;10;
47705;PMS5003;33471;52.104;1.318;2023-04-16T12:19:58;12;10;
47705;PMS5003;33471;52.104;1.318;2023-04-16T12:22:27;10;10;
47705;PMS5003;33471;52.104;1.318;2023-04-16T12:24:57;12;12;
47705;PMS5003;33471;52.104;1.318;2023-04-16T12:27:25;9;9;
47705;PMS5003;33471;52.104;1.318;2023-04-16T12:30:06;10;10;
47705;PMS5003;33471;52.104;1.318;2023-04-16T12:32:34;8;8;
47705;PMS5003;33471;52.104;1.318;2023-04-16T12:35:02;9;9;
47705;PMS5003;33471;52.104;1.318;2023-04-16T12:37:29;13;13;
47705;PMS5003;33471;52.104;1.318;2023-04-16T12:39:56;13;11;
47705;PMS5003;33471;52.104;1.318;2023-04-16T12:42:23;9;8;
47705;PMS5003;33471;52.104;1.318;2023-04-16T12:44:50;13;11;
47705;PMS5003;33471;52.104;1.318;2023-04-16T12:47:17;14;14;
47705;PMS5003;33471;52.104;1.318;2023-04-16T12:49:44;14;10;
47705;PMS5003;33471;52.104;1.318;2023-04-16T12:52:12;15;14;
47705;PMS5003;33471;52.104;1.318;2023-04-16T12:54:40;14;14;
47705;PMS5003;33471;52.104;1.318;2023-04-16T12:57:07;10;10;
47705;PMS5003;33471;52.104;1.318;2023-04-16T12:59:34;12;12;
47705;PMS5003;33471;52.104;1.318;2023-04-16T13:02:01;16;14;
47705;PMS5003;33471;52.104;1.318;2023-04-16T13:04:29;13;12;
47705;PMS5003;33471;52.104;1.318;2023-04-16T13:06:56;13;12;
47705;PMS5003;33471;52.104;1.318;2023-04-16T13:09:23;11;11;
47705;PMS5003;33471;52.104;1.318;2023-04-16T13:11:50;11;11;
47705;PMS5003;33471;52.104;1.318;2023-04-16T13:14:18;14;14;
47705;PMS5003;33471;52.104;1.318;2023-04-16T13:16:45;8;8;
47705;PMS5003;33471;52.104;1.318;2023-04-16T13:19:13;12;12;
47705;PMS5003;33471;52.104;1.318;2023-04-16T13:21:40;12;12;
47705;PMS5003;33471;52.104;1.318;2023-04-16T13:24:07;11;11;
47705;PMS5003;33471;52.104;1.318;2023-04-16T13:26:34;10;10;
47705;PMS5003;33471;52.104;1.318;2023-04-16T13:29:01;7;7;
47705;PMS5003;33471;52.104;1.318;2023-04-16T13:31:28;14;13;
47705;PMS5003;33471;52.104;1.318;2023-04-16T13:33:56;10;9;
47705;PMS5003;33471;52.104;1.318;2023-04-16T13:36:23;9;8;
47705;PMS5003;33471;52.104;1.318;2023-04-16T13:38:51;11;9;
47705;PMS5003;33471;52.104;1.318;2023-04-16T13:41:18;8;8;
47705;PMS5003;33471;52.104;1.318;2023-04-16T13:43:45;17;17;
47705;PMS5003;33471;52.104;1.318;2023-04-16T13:46:13;10;10;
47705;PMS5003;33471;52.104;1.318;2023-04-16T13:48:40;8;8;
47705;PMS5003;33471;52.104;1.318;2023-04-16T13:51:07;14;13;
47705;PMS5003;33471;52.104;1.318;2023-04-16T13:53:34;8;8;
47705;PMS5003;33471;52.104;1.318;2023-04-16T13:56:01;10;10;
47705;PMS5003;33471;52.104;1.318;2023-04-16T13:58:29;8;8;
47705;PMS5003;33471;52.104;1.318;2023-04-16T14:00:56;10;9;
47705;PMS5003;33471;52.104;1.318;2023-04-16T14:03:24;10;8;
47705;PMS5003;33471;52.104;1.318;2023-04-16T14:05:51;8;8;
47705;PMS5003;33471;52.104;1.318;2023-04-16T14:08:18;16;13;
47705;PMS5003;33471;52.104;1.318;2023-04-16T14:10:46;8;8;
47705;PMS5003;33471;52.104;1.318;2023-04-16T14:13:13;9;9;
47705;PMS5003;33471;52.104;1.318;2023-04-16T14:15:41;11;10;
47705;PMS5003;33471;52.104;1.318;2023-04-16T14:18:08;8;8;
47705;PMS5003;33471;52.104;1.318;2023-04-16T14:20:35;12;9;
47705;PMS5003;33471;52.104;1.318;2023-04-16T14:23:02;9;9;
47705;PMS5003;33471;52.104;1.318;2023-04-16T14:25:29;10;10;
47705;PMS5003;33471;52.104;1.318;2023-04-16T14:27:57;11;11;
47705;PMS5003;33471;52.104;1.318;2023-04-16T14:30:24;11;9;
47705;PMS5003;33471;52.104;1.318;2023-04-16T14:32:51;10;8;
47705;PMS5003;33471;52.104;1.318;2023-04-16T14:35:18;10;10;
47705;PMS5003;33471;52.104;1.318;2023-04-16T14:37:46;10;10;
47705;PMS5003;33471;52.104;1.318;2023-04-16T14:40:13;8;8;
47705;PMS5003;33471;52.104;1.318;2023-04-16T14:42:41;14;14;
47705;PMS5003;33471;52.104;1.318;2023-04-16T14:45:09;13;11;
47705;PMS5003;33471;52.104;1.318;2023-04-16T14:47:36;7;7;
47705;PMS5003;33471;52.104;1.318;2023-04-16T14:50:03;7;7;
47705;PMS5003;33471;52.104;1.318;2023-04-16T14:52:31;5;5;
47705;PMS5003;33471;52.104;1.318;2023-04-16T14:54:58;6;6;
47705;PMS5003;33471;52.104;1.318;2023-04-16T14:57:25;8;7;
47705;PMS5003;33471;52.104;1.318;2023-04-16T14:59:52;6;6;
47705;PMS5003;33471;52.104;1.318;2023-04-16T15:02:19;7;7;
47705;PMS5003;33471;52.104;1.318;2023-04-16T15:04:47;8;7;
47705;PMS5003;33471;52.104;1.318;2023-04-16T15:07:14;8;7;
47705;PMS5003;33471;52.104;1.318;2023-04-16T15:09:41;9;9;
47705;PMS5003;33471;52.104;1.318;2023-04-16T15:12:09;8;8;
47705;PMS5003;33471;52.104;1.318;2023-04-16T15:14:35;7;7;
47705;PMS5003;33471;52.104;1.318;2023-04-16T15:17:02;7;7;
47705;PMS5003;33471;52.104;1.318;2023-04-16T15:19:30;15;12;
47705;PMS5003;33471;52.104;1.318;2023-04-16T15:21:57;8;8;
47705;PMS5003;33471;52.104;1.318;2023-04-16T15:24:25;8;8;
47705;PMS5003;33471;52.104;1.318;2023-04-16T15:26:52;9;9;
47705;PMS5003;33471;52.104;1.318;2023-04-16T15:29:19;5;5;
47705;PMS5003;33471;52.104;1.318;2023-04-16T15:31:46;8;7;
47705;PMS5003;33471;52.104;1.318;2023-04-16T15:34:14;8;8;
47705;PMS5003;33471;52.104;1.318;2023-04-16T15:36:41;6;6;
47705;PMS5003;33471;52.104;1.318;2023-04-16T15:39:09;8;8;
47705;PMS5003;33471;52.104;1.318;2023-04-16T15:41:36;6;6;
47705;PMS5003;33471;52.104;1.318;2023-04-16T15:44:04;7;7;
47705;PMS5003;33471;52.104;1.318;2023-04-16T15:46:30;8;8;
47705;PMS5003;33471;52.104;1.318;2023-04-16T15:48:57;6;6;
47705;PMS5003;33471;52.104;1.318;2023-04-16T15:51:25;10;10;
47705;PMS5003;33471;52.104;1.318;2023-04-16T15:53:52;7;7;
47705;PMS5003;33471;52.104;1.318;2023-04-16T15:56:19;8;8;
47705;PMS5003;33471;52.104;1.318;2023-04-16T15:58:46;5;5;
47705;PMS5003;33471;52.104;1.318;2023-04-16T16:01:13;8;8;
47705;PMS5003;33471;52.104;1.318;2023-04-16T16:03:41;10;9;
47705;PMS5003;33471;52.104;1.318;2023-04-16T16:06:08;9;8;
47705;PMS5003;33471;52.104;1.318;2023-04-16T16:08:36;16;16;
47705;PMS5003;33471;52.104;1.318;2023-04-16T16:11:04;9;9;
47705;PMS5003;33471;52.104;1.318;2023-04-16T16:13:31;7;7;
47705;PMS5003;33471;52.104;1.318;2023-04-16T16:15:58;8;8;
47705;PMS5003;33471;52.104;1.318;2023-04-16T16:18:26;8;8;
47705;PMS5003;33471;52.104;1.318;2023-04-16T16:20:55;10;10;
47705;PMS5003;33471;52.104;1.318;2023-04-16T16:23:22;9;9;
47705;PMS5003;33471;52.104;1.318;2023-04-16T16:25:49;12;11;
47705;PMS5003;33471;52.104;1.318;2023-04-16T16:28:17;8;8;
47705;PMS5003;33471;52.104;1.318;2023-04-16T16:30:45;12;10;